Main page
METAR-TAF:

METAR-TAF

Airports :

Valladolid Airport

Valladolid, Spain

latitude: 41-43N, longitude: 004-51W, elevation: 849 m

Current weather observation

The report was made 33 minutes ago, at 08:30 UTC
Wind 9 kt from the East/Northeast, varying between North/Northeast and East
Temperature 18°C
Humidity 59%
Pressure 1021 hPa
Visibility 10 km or more
no clouds below 1500 m and no cumulonimbus

METAR: LEVD 150830Z 06009KT 030V100 CAVOK 18/10 Q1021

Time: 11:03 (09:03 UTC)

Forecast

The report was made 4 hours and 3 minutes ago, at 05:00 UTC
Forecast valid from 15 at 06 UTC to 16 at 06 UTC
Wind 10 kt from the Northeast
Visibility 10 km or more
no clouds below 1500 m and no cumulonimbus
Becoming
from 15 at 10 UTC to 15 at 12 UTC
Wind 5 kt from variable directions

TAF: LEVD 150500Z 1506/1606 05010KT CAVOK TX30/1516Z TN12/1506Z BECMG 1510/1512 VRB05KT

Weather observations and forecasts of more than 4000 airports (METAR and TAF reports).

The available stations are represented by yellow and red dots on the map.

Hover mouse over dot to see the name of the station.

Then click to see weather observations and forecasts.

To change the map : click on the green buttons with a black cross to zoom in, on the green button with a dash to zoom out, or on the green arrows for adjacent maps.


METAR-TAF: